Time;durP1;ratioP1;P1;durP2;ratioP2;P2;SDS_P1;SDS_P2;PMS_P1;PMS_P2;Temp;Humidity;BMP_temperature;BMP_pressure;BME280_temperature;BME280_humidity;BME280_pressure;Samples;Min_cycle;Max_cycle;Signal;HPM_P1;HPM_P2
2022/10/13 00:00:31;;;;;;;13.90;11.75;;;;;;;;;;5052919;28;20057;-79
2022/10/13 00:03:00;;;;;;;21.38;9.38;;;;;;;;;;5046804;28;20536;-79
2022/10/13 00:05:28;;;;;;;14.75;11.38;;;;;;;;;;5031731;28;20041;-79
2022/10/13 00:07:56;;;;;;;17.08;11.02;;;;;;;;;;4998931;28;20088;-80
2022/10/13 00:10:23;;;;;;;12.55;11.25;;;;;;;;;;5023182;28;20144;-80
2022/10/13 00:12:51;;;;;;;14.02;10.57;;;;;;;;;;5038931;28;20042;-79
2022/10/13 00:15:21;;;;;;;19.30;9.30;;;;;;;;;;5043254;28;20048;-79
2022/10/13 00:17:48;;;;;;;12.73;11.43;;;;;;;;;;5046545;28;20115;-79
2022/10/13 00:20:16;;;;;;;13.02;11.23;;;;;;;;;;5044587;28;20065;-79
2022/10/13 00:22:43;;;;;;;21.48;11.45;;;;;;;;;;5046447;28;20045;-79
2022/10/13 00:25:10;;;;;;;12.68;11.38;;;;;;;;;;5046342;28;20188;-79
2022/10/13 00:27:37;;;;;;;22.27;11.05;;;;;;;;;;5031704;28;20041;-81
2022/10/13 00:30:05;;;;;;;14.45;10.35;;;;;;;;;;5047962;28;20114;-79
2022/10/13 00:32:33;;;;;;;17.17;11.80;;;;;;;;;;5050652;28;20114;-80
2022/10/13 00:35:00;;;;;;;18.40;11.00;;;;;;;;;;5045660;28;20102;-79
2022/10/13 00:37:27;;;;;;;17.48;11.50;;;;;;;;;;5023619;28;20045;-79
2022/10/13 00:39:54;;;;;;;25.52;12.32;;;;;;;;;;5028275;28;20055;-79
2022/10/13 00:42:25;;;;;;;12.65;10.38;;;;;;;;;;5047381;28;20209;-79
2022/10/13 00:44:58;;;;;;;12.68;11.38;;;;;;;;;;5031232;28;20083;-79
2022/10/13 00:47:27;;;;;;;12.52;11.27;;;;;;;;;;5049510;28;20033;-79
2022/10/13 00:49:54;;;;;;;15.70;10.45;;;;;;;;;;5042501;28;20068;-80
2022/10/13 00:52:23;;;;;;;18.27;12.25;;;;;;;;;;5050096;28;20060;-79
2022/10/13 00:54:50;;;;;;;19.15;11.68;;;;;;;;;;5030586;28;20040;-81
2022/10/13 00:57:20;;;;;;;20.48;11.40;;;;;;;;;;5052117;28;20043;-80
2022/10/13 00:59:48;;;;;;;16.13;12.75;;;;;;;;;;5027209;28;20040;-80
2022/10/13 01:02:15;;;;;;;35.08;13.10;;;;;;;;;;5026373;28;20483;-81
2022/10/13 01:04:45;;;;;;;27.75;13.50;;;;;;;;;;5029705;28;20057;-80
2022/10/13 01:07:13;;;;;;;46.83;12.80;;;;;;;;;;5025593;28;20562;-80
2022/10/13 01:09:41;;;;;;;27.83;14.13;;;;;;;;;;5042297;28;20491;-80
2022/10/13 01:12:10;;;;;;;21.92;13.32;;;;;;;;;;5026116;28;20129;-80
2022/10/13 01:14:57;;;;;;;18.40;13.13;;;;;;;;;;5045135;28;20043;-80
2022/10/13 01:17:30;;;;;;;16.58;14.10;;;;;;;;;;5028669;28;20141;-80
2022/10/13 01:20:09;;;;;;;18.45;14.82;;;;;;;;;;5043901;28;20041;-80
2022/10/13 01:22:36;;;;;;;31.98;13.43;;;;;;;;;;5047996;28;20067;-79
2022/10/13 01:25:13;;;;;;;22.52;13.65;;;;;;;;;;5048522;28;20072;-81
2022/10/13 01:27:57;;;;;;;16.90;13.73;;;;;;;;;;5046511;28;20045;-81
2022/10/13 01:30:24;;;;;;;20.65;12.23;;;;;;;;;;5031361;28;20091;-80
2022/10/13 01:33:10;;;;;;;19.88;13.65;;;;;;;;;;5048759;28;20417;-80
2022/10/13 01:35:37;;;;;;;22.80;13.95;;;;;;;;;;5045097;28;20052;-81
2022/10/13 01:38:07;;;;;;;15.57;12.52;;;;;;;;;;5046773;28;20489;-80
2022/10/13 01:40:40;;;;;;;14.57;12.75;;;;;;;;;;5030466;28;20041;-80
2022/10/13 01:43:19;;;;;;;27.45;14.07;;;;;;;;;;5028325;28;20037;-80
2022/10/13 01:45:49;;;;;;;22.33;13.05;;;;;;;;;;4993270;28;20041;-80
2022/10/13 01:48:17;;;;;;;19.00;13.63;;;;;;;;;;5026467;28;20033;-80
2022/10/13 01:50:51;;;;;;;17.25;13.75;;;;;;;;;;5026262;28;20045;-80
2022/10/13 01:53:19;;;;;;;33.08;12.13;;;;;;;;;;5048953;28;20044;-80
2022/10/13 01:55:53;;;;;;;18.63;13.15;;;;;;;;;;5027360;28;20119;-80
2022/10/13 01:58:21;;;;;;;16.17;14.13;;;;;;;;;;5045265;28;20060;-80
2022/10/13 02:00:53;;;;;;;13.95;12.45;;;;;;;;;;5023798;28;20549;-80
2022/10/13 02:03:26;;;;;;;18.63;12.38;;;;;;;;;;5008158;28;20513;-79
2022/10/13 02:06:01;;;;;;;17.20;12.90;;;;;;;;;;5038205;28;20033;-80
2022/10/13 02:08:39;;;;;;;14.45;12.88;;;;;;;;;;5022814;28;20060;-80
2022/10/13 02:11:20;;;;;;;15.65;12.55;;;;;;;;;;5039145;28;20048;-81
2022/10/13 02:13:58;;;;;;;14.10;12.20;;;;;;;;;;5043294;28;20059;-80
2022/10/13 02:16:29;;;;;;;15.75;11.75;;;;;;;;;;5047234;28;20330;-81
2022/10/13 02:18:57;;;;;;;14.90;11.75;;;;;;;;;;5023843;28;20044;-81
2022/10/13 02:21:25;;;;;;;12.35;11.10;;;;;;;;;;5046913;28;20051;-81
2022/10/13 02:23:54;;;;;;;13.27;11.88;;;;;;;;;;5043572;28;20051;-80
2022/10/13 02:26:21;;;;;;;13.02;10.85;;;;;;;;;;5032432;28;20041;-81
2022/10/13 02:28:56;;;;;;;12.65;11.35;;;;;;;;;;5032913;28;20049;-80
2022/10/13 02:31:24;;;;;;;17.90;10.80;;;;;;;;;;5028514;28;20371;-81
2022/10/13 02:33:51;;;;;;;22.38;11.23;;;;;;;;;;5047044;28;20123;-80
2022/10/13 02:36:18;;;;;;;22.02;10.48;;;;;;;;;;5038561;28;20037;-80
2022/10/13 02:38:45;;;;;;;14.35;10.70;;;;;;;;;;5048496;28;20457;-80
2022/10/13 02:41:13;;;;;;;14.27;10.32;;;;;;;;;;5048874;28;20126;-80
2022/10/13 02:43:40;;;;;;;11.32;10.02;;;;;;;;;;5044276;28;20033;-80
2022/10/13 02:46:08;;;;;;;16.70;11.52;;;;;;;;;;5050858;28;20118;-80
2022/10/13 02:48:35;;;;;;;12.18;10.77;;;;;;;;;;5033454;28;20045;-80
2022/10/13 02:51:02;;;;;;;12.32;10.95;;;;;;;;;;5019471;28;20044;-80
2022/10/13 02:53:29;;;;;;;13.23;11.93;;;;;;;;;;5033850;28;20045;-80
2022/10/13 02:55:58;;;;;;;12.63;11.02;;;;;;;;;;5051636;28;20075;-80
2022/10/13 02:58:27;;;;;;;12.23;10.57;;;;;;;;;;5034426;28;20052;-80
2022/10/13 03:00:54;;;;;;;14.27;11.45;;;;;;;;;;5036178;28;20119;-80
2022/10/13 03:03:22;;;;;;;17.50;12.07;;;;;;;;;;5017704;28;20376;-81
2022/10/13 03:06:00;;;;;;;12.38;10.82;;;;;;;;;;5049939;28;20049;-81
2022/10/13 03:08:29;;;;;;;13.13;10.93;;;;;;;;;;5051315;28;20145;-81
2022/10/13 03:10:56;;;;;;;15.32;11.73;;;;;;;;;;5050111;28;20065;-81
2022/10/13 03:13:23;;;;;;;15.63;13.48;;;;;;;;;;5051304;28;20072;-80
2022/10/13 03:15:51;;;;;;;15.02;12.80;;;;;;;;;;5046099;28;20059;-81
2022/10/13 03:18:18;;;;;;;15.75;13.50;;;;;;;;;;5050043;28;20118;-80
2022/10/13 03:20:54;;;;;;;14.45;12.18;;;;;;;;;;5048835;28;20137;-80
2022/10/13 03:23:22;;;;;;;14.38;12.18;;;;;;;;;;5017216;28;20041;-79
2022/10/13 03:25:50;;;;;;;12.68;11.25;;;;;;;;;;5019670;28;20566;-80
2022/10/13 03:28:17;;;;;;;13.18;11.88;;;;;;;;;;5049563;28;20052;-79
2022/10/13 03:30:45;;;;;;;13.27;11.93;;;;;;;;;;5048670;28;20045;-80
2022/10/13 03:33:13;;;;;;;13.20;11.80;;;;;;;;;;5030656;28;20044;-80
2022/10/13 03:35:40;;;;;;;12.75;10.93;;;;;;;;;;5034677;28;20063;-80
2022/10/13 03:38:07;;;;;;;12.27;11.07;;;;;;;;;;5045560;28;20459;-80
2022/10/13 03:40:36;;;;;;;14.77;11.65;;;;;;;;;;5046882;28;20040;-79
2022/10/13 03:43:03;;;;;;;11.70;10.38;;;;;;;;;;5044317;28;20038;-79
2022/10/13 03:45:31;;;;;;;12.13;10.93;;;;;;;;;;5031642;28;20132;-80
2022/10/13 03:47:58;;;;;;;13.75;11.15;;;;;;;;;;5046647;28;20079;-80
2022/10/13 03:50:25;;;;;;;11.50;10.40;;;;;;;;;;5051635;28;20044;-80
2022/10/13 03:52:53;;;;;;;12.32;10.70;;;;;;;;;;5030083;28;20457;-80
2022/10/13 03:55:21;;;;;;;12.57;11.27;;;;;;;;;;5035538;28;20119;-80
2022/10/13 03:57:48;;;;;;;13.73;10.93;;;;;;;;;;5048947;28;20068;-80
2022/10/13 04:00:15;;;;;;;13.02;11.63;;;;;;;;;;5035059;28;20422;-80
2022/10/13 04:02:43;;;;;;;14.85;12.30;;;;;;;;;;5048314;28;20510;-79
2022/10/13 04:05:10;;;;;;;14.27;11.88;;;;;;;;;;5045945;28;20053;-80
2022/10/13 04:07:37;;;;;;;17.65;12.63;;;;;;;;;;5045750;28;20120;-79
2022/10/13 04:10:17;;;;;;;19.23;13.73;;;;;;;;;;5029791;28;20037;-80
2022/10/13 04:12:47;;;;;;;16.60;13.43;;;;;;;;;;5022914;28;20049;-79
2022/10/13 04:15:15;;;;;;;14.60;12.00;;;;;;;;;;5045886;28;20107;-79
2022/10/13 04:17:42;;;;;;;18.75;12.80;;;;;;;;;;5030649;28;20483;-80
2022/10/13 04:20:09;;;;;;;15.98;12.68;;;;;;;;;;5028213;28;20510;-80
2022/10/13 04:22:37;;;;;;;17.63;12.25;;;;;;;;;;5030217;28;20132;-79
2022/10/13 04:25:04;;;;;;;13.68;12.27;;;;;;;;;;5048357;28;20033;-80
2022/10/13 04:27:31;;;;;;;14.98;12.98;;;;;;;;;;5047201;28;20048;-78
2022/10/13 04:29:59;;;;;;;15.18;12.75;;;;;;;;;;5012828;28;20068;-81
2022/10/13 04:32:26;;;;;;;14.93;13.43;;;;;;;;;;5051993;28;20052;-81
2022/10/13 04:34:55;;;;;;;19.73;14.30;;;;;;;;;;5046173;28;20037;-81
2022/10/13 04:37:23;;;;;;;14.43;13.02;;;;;;;;;;5047424;28;20176;-81
2022/10/13 04:39:50;;;;;;;16.65;12.75;;;;;;;;;;5047043;28;20048;-78
2022/10/13 04:42:17;;;;;;;14.32;12.30;;;;;;;;;;5030634;28;20043;-80
2022/10/13 04:44:45;;;;;;;14.45;12.20;;;;;;;;;;5044110;28;20048;-80
2022/10/13 04:47:14;;;;;;;14.63;12.38;;;;;;;;;;5030802;28;20040;-81
2022/10/13 04:49:41;;;;;;;14.60;11.82;;;;;;;;;;5048744;28;20032;-79
2022/10/13 04:52:08;;;;;;;15.57;12.40;;;;;;;;;;5048759;28;20465;-80
2022/10/13 04:54:36;;;;;;;13.57;11.82;;;;;;;;;;5047440;28;20124;-80
2022/10/13 04:57:03;;;;;;;13.00;11.60;;;;;;;;;;5019340;28;20198;-79
2022/10/13 04:59:31;;;;;;;16.10;11.65;;;;;;;;;;5028994;28;20041;-80
2022/10/13 05:01:58;;;;;;;14.93;11.68;;;;;;;;;;5027986;28;20040;-79
2022/10/13 05:04:25;;;;;;;12.93;11.27;;;;;;;;;;5012054;28;20067;-80
2022/10/13 05:06:52;;;;;;;12.75;11.35;;;;;;;;;;5047019;28;20677;-80
2022/10/13 05:09:41;;;;;;;12.95;10.95;;;;;;;;;;5051512;28;20056;-79
2022/10/13 05:12:12;;;;;;;13.60;10.20;;;;;;;;;;5027504;28;20464;-79
2022/10/13 05:14:39;;;;;;;13.98;10.93;;;;;;;;;;5044870;28;20047;-79
2022/10/13 05:17:07;;;;;;;12.23;9.98;;;;;;;;;;5032482;28;20052;-80
2022/10/13 05:19:34;;;;;;;10.63;9.65;;;;;;;;;;5048426;28;20560;-81
2022/10/13 05:22:01;;;;;;;10.18;9.15;;;;;;;;;;5049958;28;20419;-79
2022/10/13 05:24:39;;;;;;;10.30;9.23;;;;;;;;;;5047675;28;20068;-80
2022/10/13 05:27:10;;;;;;;12.20;10.00;;;;;;;;;;5045227;28;20049;-80
2022/10/13 05:29:37;;;;;;;11.00;9.90;;;;;;;;;;5043659;28;20993;-79
2022/10/13 05:32:05;;;;;;;13.48;10.32;;;;;;;;;;5041319;28;20044;-80
2022/10/13 05:34:32;;;;;;;11.23;10.07;;;;;;;;;;5042460;28;20513;-79
2022/10/13 05:36:59;;;;;;;11.13;9.50;;;;;;;;;;5037695;28;20585;-79
2022/10/13 05:39:27;;;;;;;13.60;11.52;;;;;;;;;;5042341;28;20045;-81
2022/10/13 05:41:54;;;;;;;13.95;10.75;;;;;;;;;;5049882;23;20069;-77
2022/10/13 05:44:23;;;;;;;13.38;11.40;;;;;;;;;;5042136;28;20785;-79
2022/10/13 05:46:53;;;;;;;12.55;10.48;;;;;;;;;;5023845;28;20051;-78
2022/10/13 05:49:20;;;;;;;12.35;11.05;;;;;;;;;;5056927;28;20037;-78
2022/10/13 05:51:50;;;;;;;12.55;11.20;;;;;;;;;;5043279;28;20053;-78
2022/10/13 05:54:23;;;;;;;;;;;;;;;;;;5035205;28;20073;-82
2022/10/13 05:57:02;;;;;;;42.17;31.73;;;;;;;;;;5007861;28;19936;-77
2022/10/13 05:59:32;;;;;;;17.10;12.75;;;;;;;;;;5035502;28;20037;-78
2022/10/13 06:02:00;;;;;;;13.43;10.80;;;;;;;;;;5038404;28;20048;-76
2022/10/13 06:04:33;;;;;;;12.70;10.18;;;;;;;;;;5033961;28;20124;-78
2022/10/13 06:07:01;;;;;;;13.35;10.90;;;;;;;;;;4997814;28;20053;-78
2022/10/13 06:09:33;;;;;;;11.15;10.15;;;;;;;;;;5013234;28;20577;-78
2022/10/13 06:12:00;;;;;;;13.27;10.05;;;;;;;;;;5018559;28;20187;-83
2022/10/13 06:14:29;;;;;;;12.90;10.25;;;;;;;;;;5017853;28;20038;-78
2022/10/13 06:16:56;;;;;;;14.52;9.25;;;;;;;;;;5035018;28;20415;-78
2022/10/13 06:19:24;;;;;;;15.45;10.63;;;;;;;;;;5018483;28;20109;-78
2022/10/13 06:21:51;;;;;;;11.65;9.52;;;;;;;;;;5046344;28;20468;-77
2022/10/13 06:24:18;;;;;;;10.43;9.23;;;;;;;;;;5025537;28;20049;-78
2022/10/13 06:26:45;;;;;;;13.95;10.73;;;;;;;;;;5020850;28;20053;-79
2022/10/13 06:29:13;;;;;;;14.05;10.45;;;;;;;;;;5027752;28;20068;-77
2022/10/13 06:31:40;;;;;;;11.50;10.30;;;;;;;;;;5036126;28;20399;-78
2022/10/13 06:34:07;;;;;;;11.73;10.18;;;;;;;;;;5038765;28;20076;-78
2022/10/13 06:36:35;;;;;;;13.55;10.63;;;;;;;;;;5037979;28;20052;-78
2022/10/13 06:39:02;;;;;;;15.98;9.98;;;;;;;;;;5036783;28;20095;-78
2022/10/13 06:41:29;;;;;;;13.88;10.30;;;;;;;;;;5020192;28;20553;-86
2022/10/13 06:43:57;;;;;;;11.25;10.15;;;;;;;;;;5018680;28;20067;-77
2022/10/13 06:46:27;;;;;;;10.82;9.60;;;;;;;;;;5033388;28;20048;-78
2022/10/13 06:48:54;;;;;;;11.00;9.90;;;;;;;;;;5041648;28;20037;-78
2022/10/13 06:51:23;;;;;;;14.75;10.50;;;;;;;;;;5024661;28;20076;-78
2022/10/13 06:53:50;;;;;;;10.90;9.07;;;;;;;;;;5022440;28;20095;-79
2022/10/13 06:56:22;;;;;;;;;;;;;;;;;;5034756;28;20122;-78
2022/10/13 06:58:50;;;;;;;13.13;9.35;;;;;;;;;;5035783;28;20204;-78
2022/10/13 07:01:17;;;;;;;11.18;9.65;;;;;;;;;;5024508;28;20144;-78
2022/10/13 07:03:47;;;;;;;14.13;9.23;;;;;;;;;;5039041;28;20056;-84
2022/10/13 07:06:20;;;;;;;11.75;10.05;;;;;;;;;;5032473;28;20048;-78
2022/10/13 07:08:50;;;;;;;10.52;9.45;;;;;;;;;;5041767;28;20045;-78
2022/10/13 07:11:19;;;;;;;13.25;9.80;;;;;;;;;;5041704;28;20125;-78
2022/10/13 07:13:53;;;;;;;10.35;9.35;;;;;;;;;;5023829;28;20463;-78
2022/10/13 07:16:21;;;;;;;11.85;9.77;;;;;;;;;;5042233;28;20068;-78
2022/10/13 07:18:54;;;;;;;10.18;9.20;;;;;;;;;;5023258;28;20049;-77
2022/10/13 07:21:21;;;;;;;12.95;9.32;;;;;;;;;;5023057;28;20033;-77
2022/10/13 07:23:49;;;;;;;10.65;9.65;;;;;;;;;;5042556;28;20457;-78
2022/10/13 07:26:16;;;;;;;10.63;9.55;;;;;;;;;;5023561;28;20041;-77
2022/10/13 07:28:44;;;;;;;10.80;8.95;;;;;;;;;;5038807;28;20044;-78
2022/10/13 07:31:14;;;;;;;9.23;8.38;;;;;;;;;;5043496;28;20045;-78
2022/10/13 07:33:42;;;;;;;11.88;10.02;;;;;;;;;;5037614;28;20694;-78
2022/10/13 07:36:09;;;;;;;9.80;8.90;;;;;;;;;;5042234;28;20128;-83
2022/10/13 07:38:37;;;;;;;16.20;9.95;;;;;;;;;;5038435;28;20067;-85
2022/10/13 07:41:05;;;;;;;14.75;10.10;;;;;;;;;;5042379;28;20814;-78
2022/10/13 07:43:32;;;;;;;13.68;8.93;;;;;;;;;;5042387;28;20041;-78
2022/10/13 07:46:04;;;;;;;17.95;10.30;;;;;;;;;;5042564;28;20036;-78
2022/10/13 07:48:32;;;;;;;12.20;9.82;;;;;;;;;;5019138;28;20091;-78
2022/10/13 07:51:09;;;;;;;11.23;9.70;;;;;;;;;;5042710;28;20049;-77
2022/10/13 07:53:36;;;;;;;10.52;9.43;;;;;;;;;;5039205;28;20041;-78
2022/10/13 07:56:05;;;;;;;11.07;9.07;;;;;;;;;;5025526;28;20128;-78
2022/10/13 07:58:33;;;;;;;9.65;8.75;;;;;;;;;;5042398;28;20102;-78
2022/10/13 08:01:01;;;;;;;10.77;9.68;;;;;;;;;;5039390;28;20091;-77
2022/10/13 08:03:30;;;;;;;10.85;9.60;;;;;;;;;;5003379;28;20137;-77
2022/10/13 08:06:01;;;;;;;11.10;9.68;;;;;;;;;;5037250;28;20034;-78
2022/10/13 08:08:28;;;;;;;11.15;9.32;;;;;;;;;;5022284;28;20033;-81
2022/10/13 08:11:00;;;;;;;13.93;10.55;;;;;;;;;;5036935;28;20127;-78
2022/10/13 08:13:27;;;;;;;12.55;10.27;;;;;;;;;;5038535;28;20042;-78
2022/10/13 08:15:54;;;;;;;14.95;9.88;;;;;;;;;;5043044;28;20069;-79
2022/10/13 08:18:22;;;;;;;17.75;10.10;;;;;;;;;;5039504;28;20095;-78
2022/10/13 08:20:49;;;;;;;16.30;10.13;;;;;;;;;;5037679;28;20045;-77
2022/10/13 08:23:17;;;;;;;14.27;10.07;;;;;;;;;;5043153;28;20137;-78
2022/10/13 08:25:49;;;;;;;13.00;9.88;;;;;;;;;;5043098;28;20079;-78
2022/10/13 08:28:18;;;;;;;12.77;10.63;;;;;;;;;;5022578;28;20033;-76
2022/10/13 08:30:45;;;;;;;12.75;9.60;;;;;;;;;;5027045;28;20047;-76
2022/10/13 08:33:13;;;;;;;12.85;11.50;;;;;;;;;;5032982;28;20099;-75
2022/10/13 08:35:41;;;;;;;15.27;10.13;;;;;;;;;;5037513;28;20124;-77
2022/10/13 08:38:08;;;;;;;14.07;9.95;;;;;;;;;;5040951;28;20186;-78
2022/10/13 08:40:36;;;;;;;11.18;9.77;;;;;;;;;;5021940;28;20055;-78
2022/10/13 08:43:07;;;;;;;12.50;9.48;;;;;;;;;;5040107;28;20037;-78
2022/10/13 08:45:35;;;;;;;11.80;9.02;;;;;;;;;;5042079;28;20048;-77
2022/10/13 08:48:13;;;;;;;11.38;9.93;;;;;;;;;;5042220;28;20037;-78
2022/10/13 08:50:42;;;;;;;10.20;9.20;;;;;;;;;;5023226;28;20037;-78
2022/10/13 08:53:18;;;;;;;11.15;9.48;;;;;;;;;;5039772;28;20045;-78
2022/10/13 08:55:53;;;;;;;14.60;9.38;;;;;;;;;;5022437;28;20064;-78
2022/10/13 08:58:20;;;;;;;11.70;10.25;;;;;;;;;;5041670;28;20037;-78
2022/10/13 09:00:47;;;;;;;12.88;10.32;;;;;;;;;;5023781;28;20145;-78
2022/10/13 09:03:26;;;;;;;14.27;10.05;;;;;;;;;;5019543;28;20112;-78
2022/10/13 09:06:09;;;;;;;11.52;10.32;;;;;;;;;;5039806;28;20045;-78
2022/10/13 09:08:53;;;;;;;15.52;10.40;;;;;;;;;;5038419;28;20107;-78
2022/10/13 09:11:20;;;;;;;13.18;10.15;;;;;;;;;;5029210;28;20118;-78
2022/10/13 09:13:48;;;;;;;10.73;9.60;;;;;;;;;;5050080;28;20064;-78
2022/10/13 09:16:15;;;;;;;11.93;9.65;;;;;;;;;;5049549;28;20084;-78
2022/10/13 09:18:42;;;;;;;13.07;11.35;;;;;;;;;;5042540;28;20080;-79
2022/10/13 09:21:16;;;;;;;13.55;11.35;;;;;;;;;;5019007;28;20049;-78
2022/10/13 09:23:44;;;;;;;12.32;11.02;;;;;;;;;;5027015;28;20048;-78
2022/10/13 09:26:17;;;;;;;12.00;10.48;;;;;;;;;;5030878;28;20510;-79
2022/10/13 09:28:45;;;;;;;12.77;10.07;;;;;;;;;;5037536;28;20057;-78
2022/10/13 09:31:23;;;;;;;14.13;10.25;;;;;;;;;;5033260;28;20095;-77
2022/10/13 09:34:02;;;;;;;11.13;9.90;;;;;;;;;;5033570;28;20083;-78
2022/10/13 09:36:30;;;;;;;13.43;10.25;;;;;;;;;;5049686;28;20044;-78
2022/10/13 09:39:05;;;;;;;20.17;10.55;;;;;;;;;;5029959;28;20071;-79
2022/10/13 09:41:34;;;;;;;13.35;10.40;;;;;;;;;;5022056;28;20045;-78
2022/10/13 09:44:12;;;;;;;11.40;10.05;;;;;;;;;;5043274;28;20131;-78
2022/10/13 09:46:53;;;;;;;13.88;9.57;;;;;;;;;;5033510;28;20048;-78
2022/10/13 09:49:22;;;;;;;13.55;10.40;;;;;;;;;;5013938;28;20061;-78
2022/10/13 09:51:50;;;;;;;11.07;9.98;;;;;;;;;;5035689;28;20411;-78
2022/10/13 09:54:35;;;;;;;11.43;10.02;;;;;;;;;;5049441;28;20080;-79
2022/10/13 09:57:05;;;;;;;14.35;9.93;;;;;;;;;;5035587;28;20049;-78
2022/10/13 09:59:33;;;;;;;12.05;10.30;;;;;;;;;;5045366;28;20463;-78
2022/10/13 10:02:03;;;;;;;10.80;9.70;;;;;;;;;;5039568;28;20447;-77
2022/10/13 10:04:42;;;;;;;11.02;9.93;;;;;;;;;;5038816;28;20061;-77
2022/10/13 10:07:11;;;;;;;11.73;10.13;;;;;;;;;;5036153;28;20067;-79
2022/10/13 10:09:41;;;;;;;16.35;10.88;;;;;;;;;;5035486;28;20106;-78
2022/10/13 10:12:12;;;;;;;12.90;10.43;;;;;;;;;;5016606;28;20112;-78
2022/10/13 10:14:39;;;;;;;15.20;11.10;;;;;;;;;;5025313;28;20029;-78
2022/10/13 10:17:29;;;;;;;14.52;10.95;;;;;;;;;;5022681;28;20057;-78
2022/10/13 10:20:11;;;;;;;12.50;10.30;;;;;;;;;;5037733;28;20128;-78
2022/10/13 10:22:42;;;;;;;12.18;10.93;;;;;;;;;;5023824;28;20043;-77
2022/10/13 10:25:10;;;;;;;13.30;11.03;;;;;;;;;;5020295;28;20037;-79
2022/10/13 10:27:39;;;;;;;12.52;11.23;;;;;;;;;;5019959;28;20294;-78
2022/10/13 10:30:17;;;;;;;13.20;11.80;;;;;;;;;;5039134;28;20034;-78
2022/10/13 10:32:57;;;;;;;16.13;11.35;;;;;;;;;;5040320;28;20412;-79
2022/10/13 10:35:37;;;;;;;13.07;11.18;;;;;;;;;;5035945;28;20533;-78
2022/10/13 10:38:13;;;;;;;12.65;11.38;;;;;;;;;;5022016;28;20079;-78
2022/10/13 10:40:48;;;;;;;16.88;11.25;;;;;;;;;;5041537;28;20504;-78
2022/10/13 10:43:34;;;;;;;17.48;12.45;;;;;;;;;;5043718;28;20047;-78
2022/10/13 10:46:02;;;;;;;17.52;12.18;;;;;;;;;;5027909;28;20029;-78
2022/10/13 10:48:32;;;;;;;16.70;12.02;;;;;;;;;;5042269;28;20052;-78
2022/10/13 10:51:00;;;;;;;12.77;10.77;;;;;;;;;;5038202;28;20037;-80
2022/10/13 10:53:42;;;;;;;13.45;11.05;;;;;;;;;;5043378;28;20049;-77
2022/10/13 10:56:11;;;;;;;14.25;10.85;;;;;;;;;;5041824;28;20041;-78
2022/10/13 10:58:39;;;;;;;13.50;10.88;;;;;;;;;;5023720;28;20076;-77
2022/10/13 11:01:18;;;;;;;17.15;11.48;;;;;;;;;;5044089;28;20042;-78
2022/10/13 11:03:47;;;;;;;13.98;11.15;;;;;;;;;;5042450;28;20056;-78
2022/10/13 11:06:14;;;;;;;11.90;9.13;;;;;;;;;;5010860;28;20041;-77
2022/10/13 11:08:46;;;;;;;10.90;8.38;;;;;;;;;;5040913;28;20132;-78
2022/10/13 11:11:32;;;;;;;11.23;8.20;;;;;;;;;;5022387;28;20068;-78
2022/10/13 11:14:08;;;;;;;10.75;6.60;;;;;;;;;;5038599;28;20045;-77
2022/10/13 11:16:35;;;;;;;9.32;6.00;;;;;;;;;;5021929;28;20529;-78
2022/10/13 11:19:08;;;;;;;9.63;5.57;;;;;;;;;;5022232;28;20479;-78
2022/10/13 11:21:53;;;;;;;6.85;5.18;;;;;;;;;;5042616;28;20049;-78
2022/10/13 11:24:33;;;;;;;9.65;5.50;;;;;;;;;;5040744;28;20426;-78
2022/10/13 11:27:15;;;;;;;8.30;5.65;;;;;;;;;;5042144;28;20094;-78
2022/10/13 11:29:43;;;;;;;6.63;5.47;;;;;;;;;;5022324;28;20040;-77
2022/10/13 11:35:02;;;;;;;;;;;;;;;;;;5018876;28;20049;-77
2022/10/13 11:37:37;;;;;;;10.40;5.57;;;;;;;;;;5035630;28;19935;-78
2022/10/13 11:40:07;;;;;;;9.00;6.82;;;;;;;;;;5041713;28;20107;-78
2022/10/13 11:42:58;;;;;;;14.65;6.50;;;;;;;;;;5022540;28;20396;-78
2022/10/13 11:45:31;;;;;;;13.13;7.23;;;;;;;;;;5041638;28;20033;-75
2022/10/13 11:48:17;;;;;;;10.27;7.30;;;;;;;;;;5030169;28;20050;-76
2022/10/13 11:50:45;;;;;;;11.82;6.75;;;;;;;;;;5026419;28;20038;-76
2022/10/13 11:53:23;;;;;;;9.45;6.53;;;;;;;;;;5038478;28;20069;-84
2022/10/13 11:55:55;;;;;;;10.10;5.93;;;;;;;;;;5035995;28;20052;-77
2022/10/13 11:58:29;;;;;;;9.27;7.15;;;;;;;;;;5039169;28;20059;-78
2022/10/13 12:01:00;;;;;;;7.35;6.30;;;;;;;;;;5035417;28;20132;-77
2022/10/13 12:03:30;;;;;;;11.57;6.63;;;;;;;;;;4999688;28;20114;-78
2022/10/13 12:06:02;;;;;;;14.73;8.18;;;;;;;;;;5029481;28;20158;-78
2022/10/13 12:08:30;;;;;;;7.65;6.63;;;;;;;;;;5031109;28;20049;-78
2022/10/13 12:10:59;;;;;;;7.88;6.15;;;;;;;;;;5034556;28;20533;-78
2022/10/13 12:13:28;;;;;;;9.60;6.82;;;;;;;;;;5021206;28;20091;-78
2022/10/13 12:16:06;;;;;;;7.80;6.35;;;;;;;;;;5039044;28;20066;-79
2022/10/13 12:18:37;;;;;;;7.88;6.40;;;;;;;;;;5039217;28;20055;-78
2022/10/13 12:21:09;;;;;;;8.65;6.43;;;;;;;;;;5024014;28;20052;-77
2022/10/13 12:23:37;;;;;;;10.30;7.07;;;;;;;;;;5037186;28;20049;-78
2022/10/13 12:26:05;;;;;;;8.82;7.15;;;;;;;;;;5032734;28;20590;-78
2022/10/13 12:28:50;;;;;;;9.57;7.32;;;;;;;;;;5034659;28;20068;-78
2022/10/13 12:31:22;;;;;;;9.45;6.47;;;;;;;;;;5017856;28;20075;-79
2022/10/13 12:33:54;;;;;;;7.43;6.10;;;;;;;;;;5037884;28;20045;-78
2022/10/13 12:36:21;;;;;;;;;;;;;;;;;;5030562;28;20135;-78
2022/10/13 12:38:50;;;;;;;7.93;6.53;;;;;;;;;;5033943;28;19924;-78
2022/10/13 12:41:19;;;;;;;13.73;6.00;;;;;;;;;;5032405;28;20041;-78
2022/10/13 12:43:47;;;;;;;8.95;6.05;;;;;;;;;;5030191;28;20041;-79
2022/10/13 12:46:34;;;;;;;10.02;6.43;;;;;;;;;;5034317;28;20136;-78
2022/10/13 12:49:04;;;;;;;8.60;6.60;;;;;;;;;;5015359;28;20407;-78
2022/10/13 12:51:32;;;;;;;10.27;6.57;;;;;;;;;;5032861;28;20388;-78
2022/10/13 12:53:59;;;;;;;8.23;7.15;;;;;;;;;;5017024;28;20049;-76
2022/10/13 12:56:28;;;;;;;7.50;5.85;;;;;;;;;;5034085;28;20047;-75
2022/10/13 12:58:56;;;;;;;7.90;6.47;;;;;;;;;;5034512;28;20048;-76
2022/10/13 13:01:23;;;;;;;9.32;6.65;;;;;;;;;;5017456;28;20041;-75
2022/10/13 13:03:55;;;;;;;10.38;6.68;;;;;;;;;;5038029;28;20044;-76
2022/10/13 13:06:26;;;;;;;10.45;6.43;;;;;;;;;;5017306;28;20049;-77
2022/10/13 13:09:27;;;;;;;11.80;6.90;;;;;;;;;;5037140;28;20040;-75
2022/10/13 13:12:04;;;;;;;9.20;6.80;;;;;;;;;;4979952;28;20045;-75
2022/10/13 13:14:37;;;;;;;12.75;6.50;;;;;;;;;;5039473;28;20510;-75
2022/10/13 13:17:12;;;;;;;9.73;6.95;;;;;;;;;;5019672;28;20136;-76
2022/10/13 13:19:40;;;;;;;7.97;5.85;;;;;;;;;;5036233;28;20041;-76
2022/10/13 13:22:09;;;;;;;9.25;5.97;;;;;;;;;;5044831;28;20414;-76
2022/10/13 13:24:37;;;;;;;10.77;6.47;;;;;;;;;;5020281;28;20528;-76
2022/10/13 13:27:26;;;;;;;7.28;5.57;;;;;;;;;;5035667;28;20497;-76
2022/10/13 13:29:55;;;;;;;7.72;6.80;;;;;;;;;;5042339;28;20642;-76
2022/10/13 13:32:23;;;;;;;13.07;6.22;;;;;;;;;;5039621;28;20383;-76
2022/10/13 13:34:50;;;;;;;8.48;5.80;;;;;;;;;;5037258;28;20064;-75
2022/10/13 13:37:27;;;;;;;8.80;6.00;;;;;;;;;;5038750;28;20047;-78
2022/10/13 13:39:54;;;;;;;8.65;6.65;;;;;;;;;;5017296;28;20045;-77
2022/10/13 13:42:21;;;;;;;12.55;8.52;;;;;;;;;;5039208;28;20056;-76
2022/10/13 13:44:49;;;;;;;13.45;7.43;;;;;;;;;;5045018;28;20045;-79
2022/10/13 13:47:21;;;;;;;12.07;7.65;;;;;;;;;;5025183;28;20517;-77
2022/10/13 13:49:49;;;;;;;;;;;;;;;;;;5029173;28;20507;-77
2022/10/13 13:52:17;;;;;;;8.48;5.97;;;;;;;;;;5034855;28;20085;-77
2022/10/13 13:54:44;;;;;;;9.05;6.25;;;;;;;;;;5030445;28;20452;-77
2022/10/13 13:57:12;;;;;;;20.23;6.28;;;;;;;;;;5042015;28;20068;-77
2022/10/13 13:59:40;;;;;;;9.70;5.93;;;;;;;;;;5034890;28;20135;-77
2022/10/13 14:02:12;;;;;;;10.27;6.80;;;;;;;;;;5035348;28;20692;-76
2022/10/13 14:04:39;;;;;;;10.13;8.02;;;;;;;;;;5040979;28;20037;-76
2022/10/13 14:07:07;;;;;;;11.52;7.30;;;;;;;;;;5021027;28;20116;-76
2022/10/13 14:09:34;;;;;;;12.27;7.15;;;;;;;;;;5037423;28;20553;-77
2022/10/13 14:12:01;;;;;;;11.60;9.02;;;;;;;;;;5017998;28;20041;-76
2022/10/13 14:14:32;;;;;;;14.95;8.35;;;;;;;;;;5044748;28;20510;-77
2022/10/13 14:17:00;;;;;;;11.18;8.57;;;;;;;;;;5021194;28;20045;-78
2022/10/13 14:19:27;;;;;;;10.23;8.13;;;;;;;;;;5023120;28;20140;-76
2022/10/13 14:21:55;;;;;;;13.27;7.18;;;;;;;;;;5036000;28;20098;-78
2022/10/13 14:24:22;;;;;;;10.50;7.10;;;;;;;;;;5041411;28;20140;-77
2022/10/13 14:26:49;;;;;;;8.02;7.22;;;;;;;;;;5035992;28;20037;-77
2022/10/13 14:29:16;;;;;;;8.68;7.05;;;;;;;;;;5020457;28;20450;-77
2022/10/13 14:31:44;;;;;;;8.55;6.75;;;;;;;;;;5020035;28;20101;-76
2022/10/13 14:34:11;;;;;;;11.00;7.13;;;;;;;;;;5036352;28;20114;-77
2022/10/13 14:36:39;;;;;;;12.15;6.57;;;;;;;;;;5036231;28;20040;-77
2022/10/13 14:39:06;;;;;;;7.55;6.25;;;;;;;;;;5032096;28;20069;-77
2022/10/13 14:41:34;;;;;;;14.20;7.00;;;;;;;;;;5034892;28;20079;-76
2022/10/13 14:44:01;;;;;;;10.10;7.50;;;;;;;;;;5014587;28;20041;-77
2022/10/13 14:46:29;;;;;;;13.32;7.43;;;;;;;;;;5036520;28;20515;-77